sensor_id;sensor_type;location;lat;lon;timestamp;P1;durP1;ratioP1;P2;durP2;ratioP2
60851;SDS011;48553;50.766;2.900;2024-02-15T00:02:51;11.55;;;3.50;;
60851;SDS011;48553;50.766;2.900;2024-02-15T00:05:52;10.35;;;3.40;;
60851;SDS011;48553;50.766;2.900;2024-02-15T00:08:52;10.13;;;3.30;;
60851;SDS011;48553;50.766;2.900;2024-02-15T00:11:53;12.27;;;3.60;;
60851;SDS011;48553;50.766;2.900;2024-02-15T00:14:53;10.43;;;3.20;;
60851;SDS011;48553;50.766;2.900;2024-02-15T00:17:58;9.45;;;3.30;;
60851;SDS011;48553;50.766;2.900;2024-02-15T00:20:58;11.70;;;3.45;;
60851;SDS011;48553;50.766;2.900;2024-02-15T00:24:00;8.50;;;3.38;;
60851;SDS011;48553;50.766;2.900;2024-02-15T00:27:00;10.43;;;3.35;;
60851;SDS011;48553;50.766;2.900;2024-02-15T00:30:03;13.38;;;3.50;;
60851;SDS011;48553;50.766;2.900;2024-02-15T00:33:05;10.98;;;3.35;;
60851;SDS011;48553;50.766;2.900;2024-02-15T00:36:05;7.93;;;3.15;;
60851;SDS011;48553;50.766;2.900;2024-02-15T00:39:06;11.40;;;3.45;;
60851;SDS011;48553;50.766;2.900;2024-02-15T00:42:08;10.38;;;3.28;;
60851;SDS011;48553;50.766;2.900;2024-02-15T00:45:09;11.20;;;3.70;;
60851;SDS011;48553;50.766;2.900;2024-02-15T00:48:09;11.68;;;3.40;;
60851;SDS011;48553;50.766;2.900;2024-02-15T00:51:10;13.48;;;3.63;;
60851;SDS011;48553;50.766;2.900;2024-02-15T00:54:10;8.00;;;3.38;;
60851;SDS011;48553;50.766;2.900;2024-02-15T00:57:10;12.43;;;3.75;;
60851;SDS011;48553;50.766;2.900;2024-02-15T01:00:11;9.52;;;3.33;;
60851;SDS011;48553;50.766;2.900;2024-02-15T01:03:13;10.55;;;3.40;;
60851;SDS011;48553;50.766;2.900;2024-02-15T01:06:13;11.27;;;3.35;;
60851;SDS011;48553;50.766;2.900;2024-02-15T01:09:14;12.02;;;3.38;;
60851;SDS011;48553;50.766;2.900;2024-02-15T01:12:14;8.82;;;3.30;;
60851;SDS011;48553;50.766;2.900;2024-02-15T01:15:15;11.85;;;3.40;;
60851;SDS011;48553;50.766;2.900;2024-02-15T01:18:20;11.10;;;3.50;;
60851;SDS011;48553;50.766;2.900;2024-02-15T01:21:21;8.70;;;3.35;;
60851;SDS011;48553;50.766;2.900;2024-02-15T01:24:22;12.73;;;3.50;;
60851;SDS011;48553;50.766;2.900;2024-02-15T01:27:25;11.15;;;3.47;;
60851;SDS011;48553;50.766;2.900;2024-02-15T01:30:29;11.20;;;3.47;;
60851;SDS011;48553;50.766;2.900;2024-02-15T01:33:31;12.05;;;3.88;;
60851;SDS011;48553;50.766;2.900;2024-02-15T01:36:32;12.60;;;3.63;;
60851;SDS011;48553;50.766;2.900;2024-02-15T01:39:32;9.25;;;3.15;;
60851;SDS011;48553;50.766;2.900;2024-02-15T01:42:33;7.68;;;3.20;;
60851;SDS011;48553;50.766;2.900;2024-02-15T01:45:33;9.23;;;3.50;;
60851;SDS011;48553;50.766;2.900;2024-02-15T01:48:34;8.60;;;3.15;;
60851;SDS011;48553;50.766;2.900;2024-02-15T01:51:39;10.35;;;3.40;;
60851;SDS011;48553;50.766;2.900;2024-02-15T01:54:43;7.82;;;3.10;;
60851;SDS011;48553;50.766;2.900;2024-02-15T01:57:44;8.75;;;3.08;;
60851;SDS011;48553;50.766;2.900;2024-02-15T02:00:48;11.60;;;3.47;;
60851;SDS011;48553;50.766;2.900;2024-02-15T02:03:48;12.10;;;3.25;;
60851;SDS011;48553;50.766;2.900;2024-02-15T02:06:49;10.73;;;3.13;;
60851;SDS011;48553;50.766;2.900;2024-02-15T02:09:49;6.90;;;3.20;;
60851;SDS011;48553;50.766;2.900;2024-02-15T02:12:50;11.40;;;2.92;;
60851;SDS011;48553;50.766;2.900;2024-02-15T02:15:50;9.73;;;3.35;;
60851;SDS011;48553;50.766;2.900;2024-02-15T02:18:51;8.18;;;3.22;;
60851;SDS011;48553;50.766;2.900;2024-02-15T02:21:52;8.75;;;2.90;;
60851;SDS011;48553;50.766;2.900;2024-02-15T02:27:58;10.70;;;3.07;;
60851;SDS011;48553;50.766;2.900;2024-02-15T02:31:00;9.00;;;2.97;;
60851;SDS011;48553;50.766;2.900;2024-02-15T02:34:00;11.63;;;3.55;;
60851;SDS011;48553;50.766;2.900;2024-02-15T02:37:01;8.20;;;3.13;;
60851;SDS011;48553;50.766;2.900;2024-02-15T02:40:05;9.77;;;3.38;;
60851;SDS011;48553;50.766;2.900;2024-02-15T02:43:08;11.35;;;3.10;;
60851;SDS011;48553;50.766;2.900;2024-02-15T02:46:10;8.23;;;3.15;;
60851;SDS011;48553;50.766;2.900;2024-02-15T02:49:10;8.93;;;3.15;;
60851;SDS011;48553;50.766;2.900;2024-02-15T02:52:11;12.05;;;3.47;;
60851;SDS011;48553;50.766;2.900;2024-02-15T02:55:12;9.30;;;3.13;;
60851;SDS011;48553;50.766;2.900;2024-02-15T02:58:13;11.45;;;3.50;;
60851;SDS011;48553;50.766;2.900;2024-02-15T03:01:13;9.18;;;3.20;;
60851;SDS011;48553;50.766;2.900;2024-02-15T03:04:16;11.70;;;3.75;;
60851;SDS011;48553;50.766;2.900;2024-02-15T03:07:17;8.73;;;3.40;;
60851;SDS011;48553;50.766;2.900;2024-02-15T03:10:18;8.45;;;3.67;;
60851;SDS011;48553;50.766;2.900;2024-02-15T03:13:19;6.90;;;3.10;;
60851;SDS011;48553;50.766;2.900;2024-02-15T03:16:23;9.50;;;3.55;;
60851;SDS011;48553;50.766;2.900;2024-02-15T03:19:24;8.95;;;3.22;;
60851;SDS011;48553;50.766;2.900;2024-02-15T03:22:27;11.95;;;3.50;;
60851;SDS011;48553;50.766;2.900;2024-02-15T03:25:29;9.48;;;3.78;;
60851;SDS011;48553;50.766;2.900;2024-02-15T03:28:29;10.60;;;3.33;;
60851;SDS011;48553;50.766;2.900;2024-02-15T03:31:30;7.95;;;3.20;;
60851;SDS011;48553;50.766;2.900;2024-02-15T03:34:31;9.95;;;3.17;;
60851;SDS011;48553;50.766;2.900;2024-02-15T03:37:31;10.38;;;3.58;;
60851;SDS011;48553;50.766;2.900;2024-02-15T03:40:33;8.93;;;3.35;;
60851;SDS011;48553;50.766;2.900;2024-02-15T03:43:34;8.68;;;3.45;;
60851;SDS011;48553;50.766;2.900;2024-02-15T03:46:34;11.07;;;3.40;;
60851;SDS011;48553;50.766;2.900;2024-02-15T03:49:35;10.52;;;3.40;;
60851;SDS011;48553;50.766;2.900;2024-02-15T03:52:35;8.50;;;3.08;;
60851;SDS011;48553;50.766;2.900;2024-02-15T03:55:36;8.23;;;3.47;;
60851;SDS011;48553;50.766;2.900;2024-02-15T03:58:37;9.73;;;3.40;;
60851;SDS011;48553;50.766;2.900;2024-02-15T04:01:38;12.30;;;3.55;;
60851;SDS011;48553;50.766;2.900;2024-02-15T04:04:39;12.88;;;3.65;;
60851;SDS011;48553;50.766;2.900;2024-02-15T04:07:42;6.95;;;2.95;;
60851;SDS011;48553;50.766;2.900;2024-02-15T04:10:43;7.38;;;3.15;;
60851;SDS011;48553;50.766;2.900;2024-02-15T04:13:45;9.10;;;3.22;;
60851;SDS011;48553;50.766;2.900;2024-02-15T04:16:46;8.98;;;3.28;;
60851;SDS011;48553;50.766;2.900;2024-02-15T04:19:47;8.68;;;3.33;;
60851;SDS011;48553;50.766;2.900;2024-02-15T04:22:48;11.63;;;3.15;;
60851;SDS011;48553;50.766;2.900;2024-02-15T04:25:50;9.35;;;3.00;;
60851;SDS011;48553;50.766;2.900;2024-02-15T04:28:52;9.07;;;3.35;;
60851;SDS011;48553;50.766;2.900;2024-02-15T04:31:53;8.20;;;3.22;;
60851;SDS011;48553;50.766;2.900;2024-02-15T04:34:54;7.72;;;2.97;;
60851;SDS011;48553;50.766;2.900;2024-02-15T04:37:55;7.85;;;2.83;;
60851;SDS011;48553;50.766;2.900;2024-02-15T04:40:55;7.35;;;3.20;;
60851;SDS011;48553;50.766;2.900;2024-02-15T04:43:56;8.25;;;3.10;;
60851;SDS011;48553;50.766;2.900;2024-02-15T04:46:57;8.23;;;3.10;;
60851;SDS011;48553;50.766;2.900;2024-02-15T04:49:57;5.85;;;2.83;;
60851;SDS011;48553;50.766;2.900;2024-02-15T04:52:58;6.78;;;3.38;;
60851;SDS011;48553;50.766;2.900;2024-02-15T04:55:58;8.48;;;3.30;;
60851;SDS011;48553;50.766;2.900;2024-02-15T04:59:01;8.05;;;3.25;;
60851;SDS011;48553;50.766;2.900;2024-02-15T05:02:02;9.07;;;3.47;;
60851;SDS011;48553;50.766;2.900;2024-02-15T05:05:02;7.43;;;3.10;;
60851;SDS011;48553;50.766;2.900;2024-02-15T05:08:03;8.45;;;3.63;;
60851;SDS011;48553;50.766;2.900;2024-02-15T05:11:04;11.13;;;3.58;;
60851;SDS011;48553;50.766;2.900;2024-02-15T05:14:05;9.20;;;3.45;;
60851;SDS011;48553;50.766;2.900;2024-02-15T05:17:06;11.75;;;3.60;;
60851;SDS011;48553;50.766;2.900;2024-02-15T05:20:11;9.73;;;3.75;;
60851;SDS011;48553;50.766;2.900;2024-02-15T05:23:13;8.68;;;3.58;;
60851;SDS011;48553;50.766;2.900;2024-02-15T05:26:14;11.07;;;4.00;;
60851;SDS011;48553;50.766;2.900;2024-02-15T05:29:16;7.97;;;3.80;;
60851;SDS011;48553;50.766;2.900;2024-02-15T05:32:16;13.43;;;4.45;;
60851;SDS011;48553;50.766;2.900;2024-02-15T05:35:19;14.23;;;4.47;;
60851;SDS011;48553;50.766;2.900;2024-02-15T05:38:19;12.52;;;4.53;;
60851;SDS011;48553;50.766;2.900;2024-02-15T05:41:20;13.60;;;5.97;;
60851;SDS011;48553;50.766;2.900;2024-02-15T05:44:21;15.73;;;5.63;;
60851;SDS011;48553;50.766;2.900;2024-02-15T05:47:22;13.40;;;5.30;;
60851;SDS011;48553;50.766;2.900;2024-02-15T05:50:22;13.45;;;5.10;;
60851;SDS011;48553;50.766;2.900;2024-02-15T05:53:23;12.38;;;5.93;;
60851;SDS011;48553;50.766;2.900;2024-02-15T05:56:24;14.90;;;5.95;;
60851;SDS011;48553;50.766;2.900;2024-02-15T05:59:26;18.92;;;6.43;;
60851;SDS011;48553;50.766;2.900;2024-02-15T06:02:26;15.55;;;6.47;;
60851;SDS011;48553;50.766;2.900;2024-02-15T06:05:27;19.20;;;6.68;;
60851;SDS011;48553;50.766;2.900;2024-02-15T06:08:28;17.10;;;6.57;;
60851;SDS011;48553;50.766;2.900;2024-02-15T06:11:31;17.00;;;6.60;;
60851;SDS011;48553;50.766;2.900;2024-02-15T06:14:32;17.52;;;6.85;;
60851;SDS011;48553;50.766;2.900;2024-02-15T06:17:32;16.10;;;6.55;;
60851;SDS011;48553;50.766;2.900;2024-02-15T06:20:33;22.67;;;7.50;;
60851;SDS011;48553;50.766;2.900;2024-02-15T06:23:33;18.92;;;7.10;;
60851;SDS011;48553;50.766;2.900;2024-02-15T06:26:34;17.23;;;6.90;;
60851;SDS011;48553;50.766;2.900;2024-02-15T06:29:34;21.92;;;7.38;;
60851;SDS011;48553;50.766;2.900;2024-02-15T06:32:54;21.08;;;7.35;;
60851;SDS011;48553;50.766;2.900;2024-02-15T06:36:13;18.73;;;7.55;;
60851;SDS011;48553;50.766;2.900;2024-02-15T06:39:32;19.55;;;7.57;;
60851;SDS011;48553;50.766;2.900;2024-02-15T06:42:42;17.02;;;8.02;;
60851;SDS011;48553;50.766;2.900;2024-02-15T06:45:42;22.00;;;7.75;;
60851;SDS011;48553;50.766;2.900;2024-02-15T06:48:46;17.02;;;7.30;;
60851;SDS011;48553;50.766;2.900;2024-02-15T06:51:47;18.60;;;7.40;;
60851;SDS011;48553;50.766;2.900;2024-02-15T06:54:48;20.60;;;8.05;;
60851;SDS011;48553;50.766;2.900;2024-02-15T06:57:50;18.92;;;7.60;;
60851;SDS011;48553;50.766;2.900;2024-02-15T07:00:51;16.45;;;6.90;;
60851;SDS011;48553;50.766;2.900;2024-02-15T07:03:51;17.95;;;7.22;;
60851;SDS011;48553;50.766;2.900;2024-02-15T07:06:52;21.90;;;7.38;;
60851;SDS011;48553;50.766;2.900;2024-02-15T07:09:54;18.42;;;7.13;;
60851;SDS011;48553;50.766;2.900;2024-02-15T07:12:54;17.42;;;7.40;;
60851;SDS011;48553;50.766;2.900;2024-02-15T07:15:56;17.00;;;6.85;;
60851;SDS011;48553;50.766;2.900;2024-02-15T07:18:56;19.95;;;6.85;;
60851;SDS011;48553;50.766;2.900;2024-02-15T07:21:57;16.25;;;6.68;;
60851;SDS011;48553;50.766;2.900;2024-02-15T07:24:57;14.13;;;7.03;;
60851;SDS011;48553;50.766;2.900;2024-02-15T07:27:58;16.08;;;6.88;;
60851;SDS011;48553;50.766;2.900;2024-02-15T07:30:58;17.20;;;6.65;;
60851;SDS011;48553;50.766;2.900;2024-02-15T07:34:00;15.70;;;6.70;;
60851;SDS011;48553;50.766;2.900;2024-02-15T07:37:02;13.18;;;6.72;;
60851;SDS011;48553;50.766;2.900;2024-02-15T07:40:02;14.57;;;6.40;;
60851;SDS011;48553;50.766;2.900;2024-02-15T07:43:04;13.65;;;6.68;;
60851;SDS011;48553;50.766;2.900;2024-02-15T07:46:06;14.88;;;6.50;;
60851;SDS011;48553;50.766;2.900;2024-02-15T07:49:07;14.00;;;5.68;;
60851;SDS011;48553;50.766;2.900;2024-02-15T07:52:08;15.20;;;5.80;;
60851;SDS011;48553;50.766;2.900;2024-02-15T07:55:09;13.80;;;5.75;;
60851;SDS011;48553;50.766;2.900;2024-02-15T07:58:09;12.23;;;5.20;;
60851;SDS011;48553;50.766;2.900;2024-02-15T08:01:09;10.90;;;5.32;;
60851;SDS011;48553;50.766;2.900;2024-02-15T08:04:10;11.75;;;5.25;;
60851;SDS011;48553;50.766;2.900;2024-02-15T08:07:11;12.57;;;5.78;;
60851;SDS011;48553;50.766;2.900;2024-02-15T08:10:11;10.27;;;4.60;;
60851;SDS011;48553;50.766;2.900;2024-02-15T08:13:14;9.75;;;4.70;;
60851;SDS011;48553;50.766;2.900;2024-02-15T08:16:15;10.18;;;4.45;;
60851;SDS011;48553;50.766;2.900;2024-02-15T08:19:17;9.15;;;4.20;;
60851;SDS011;48553;50.766;2.900;2024-02-15T08:22:17;10.60;;;4.53;;
60851;SDS011;48553;50.766;2.900;2024-02-15T08:25:25;9.63;;;3.97;;
60851;SDS011;48553;50.766;2.900;2024-02-15T08:28:26;9.55;;;4.22;;
60851;SDS011;48553;50.766;2.900;2024-02-15T08:31:28;8.88;;;3.95;;
60851;SDS011;48553;50.766;2.900;2024-02-15T08:34:31;8.77;;;3.60;;
60851;SDS011;48553;50.766;2.900;2024-02-15T08:37:33;7.40;;;3.60;;
60851;SDS011;48553;50.766;2.900;2024-02-15T08:40:35;10.70;;;3.75;;
60851;SDS011;48553;50.766;2.900;2024-02-15T08:43:35;7.68;;;3.38;;
60851;SDS011;48553;50.766;2.900;2024-02-15T08:46:39;8.80;;;3.50;;
60851;SDS011;48553;50.766;2.900;2024-02-15T08:49:39;10.20;;;3.72;;
60851;SDS011;48553;50.766;2.900;2024-02-15T08:52:40;8.95;;;3.40;;
60851;SDS011;48553;50.766;2.900;2024-02-15T08:55:41;8.40;;;3.22;;
60851;SDS011;48553;50.766;2.900;2024-02-15T08:58:42;8.48;;;3.80;;
60851;SDS011;48553;50.766;2.900;2024-02-15T09:01:42;7.72;;;3.55;;
60851;SDS011;48553;50.766;2.900;2024-02-15T09:04:43;9.75;;;3.17;;
60851;SDS011;48553;50.766;2.900;2024-02-15T09:07:44;5.90;;;2.92;;
60851;SDS011;48553;50.766;2.900;2024-02-15T09:10:51;6.72;;;3.05;;
60851;SDS011;48553;50.766;2.900;2024-02-15T09:13:52;6.97;;;3.10;;
60851;SDS011;48553;50.766;2.900;2024-02-15T09:16:52;7.10;;;2.95;;
60851;SDS011;48553;50.766;2.900;2024-02-15T09:19:53;8.43;;;3.28;;
60851;SDS011;48553;50.766;2.900;2024-02-15T09:22:54;6.97;;;2.70;;
60851;SDS011;48553;50.766;2.900;2024-02-15T09:25:56;7.38;;;2.78;;
60851;SDS011;48553;50.766;2.900;2024-02-15T09:28:57;6.18;;;2.85;;
60851;SDS011;48553;50.766;2.900;2024-02-15T09:31:57;9.13;;;3.10;;
60851;SDS011;48553;50.766;2.900;2024-02-15T09:34:57;6.88;;;2.70;;
60851;SDS011;48553;50.766;2.900;2024-02-15T09:37:58;5.82;;;3.00;;
60851;SDS011;48553;50.766;2.900;2024-02-15T09:40:58;5.40;;;2.78;;
60851;SDS011;48553;50.766;2.900;2024-02-15T09:43:59;8.65;;;2.90;;
60851;SDS011;48553;50.766;2.900;2024-02-15T09:47:04;5.65;;;2.90;;
60851;SDS011;48553;50.766;2.900;2024-02-15T09:50:10;6.18;;;2.78;;
60851;SDS011;48553;50.766;2.900;2024-02-15T09:53:14;6.72;;;2.80;;
60851;SDS011;48553;50.766;2.900;2024-02-15T09:56:15;6.22;;;2.67;;
60851;SDS011;48553;50.766;2.900;2024-02-15T09:59:16;5.55;;;2.50;;
60851;SDS011;48553;50.766;2.900;2024-02-15T10:02:18;4.88;;;2.42;;
60851;SDS011;48553;50.766;2.900;2024-02-15T10:05:19;5.50;;;2.70;;
60851;SDS011;48553;50.766;2.900;2024-02-15T10:08:19;5.88;;;2.88;;
60851;SDS011;48553;50.766;2.900;2024-02-15T10:11:21;8.18;;;2.60;;
60851;SDS011;48553;50.766;2.900;2024-02-15T10:14:22;5.70;;;2.15;;
60851;SDS011;48553;50.766;2.900;2024-02-15T10:17:23;6.97;;;2.67;;
60851;SDS011;48553;50.766;2.900;2024-02-15T10:20:24;5.28;;;2.42;;
60851;SDS011;48553;50.766;2.900;2024-02-15T10:23:27;6.15;;;2.55;;
60851;SDS011;48553;50.766;2.900;2024-02-15T10:26:28;4.38;;;2.33;;
60851;SDS011;48553;50.766;2.900;2024-02-15T10:29:29;5.18;;;2.60;;
60851;SDS011;48553;50.766;2.900;2024-02-15T10:32:36;5.30;;;2.30;;
60851;SDS011;48553;50.766;2.900;2024-02-15T10:35:36;7.35;;;2.25;;
60851;SDS011;48553;50.766;2.900;2024-02-15T10:38:37;5.55;;;1.75;;
60851;SDS011;48553;50.766;2.900;2024-02-15T10:41:38;4.43;;;1.63;;
60851;SDS011;48553;50.766;2.900;2024-02-15T10:44:40;5.68;;;2.00;;
60851;SDS011;48553;50.766;2.900;2024-02-15T10:47:46;6.57;;;1.90;;
60851;SDS011;48553;50.766;2.900;2024-02-15T10:50:47;4.47;;;1.87;;
60851;SDS011;48553;50.766;2.900;2024-02-15T10:53:57;4.05;;;2.00;;
60851;SDS011;48553;50.766;2.900;2024-02-15T10:57:06;5.18;;;1.67;;
60851;SDS011;48553;50.766;2.900;2024-02-15T11:00:09;5.60;;;1.88;;
60851;SDS011;48553;50.766;2.900;2024-02-15T11:03:29;5.07;;;1.88;;
60851;SDS011;48553;50.766;2.900;2024-02-15T11:06:38;4.95;;;2.15;;
60851;SDS011;48553;50.766;2.900;2024-02-15T11:09:41;5.97;;;1.90;;
60851;SDS011;48553;50.766;2.900;2024-02-15T11:12:43;3.55;;;1.85;;
60851;SDS011;48553;50.766;2.900;2024-02-15T11:15:44;4.78;;;1.52;;
60851;SDS011;48553;50.766;2.900;2024-02-15T11:18:48;3.65;;;1.52;;
60851;SDS011;48553;50.766;2.900;2024-02-15T11:21:54;3.90;;;1.73;;
60851;SDS011;48553;50.766;2.900;2024-02-15T11:24:58;3.25;;;1.50;;
60851;SDS011;48553;50.766;2.900;2024-02-15T11:35:07;5.20;;;1.58;;
60851;SDS011;48553;50.766;2.900;2024-02-15T11:38:27;2.50;;;1.50;;
60851;SDS011;48553;50.766;2.900;2024-02-15T11:41:28;4.63;;;1.93;;
60851;SDS011;48553;50.766;2.900;2024-02-15T11:44:29;3.50;;;1.40;;
60851;SDS011;48553;50.766;2.900;2024-02-15T11:47:31;5.07;;;1.80;;
60851;SDS011;48553;50.766;2.900;2024-02-15T11:50:36;3.45;;;1.63;;
60851;SDS011;48553;50.766;2.900;2024-02-15T11:53:37;4.45;;;1.98;;
60851;SDS011;48553;50.766;2.900;2024-02-15T12:00:10;4.88;;;1.88;;
60851;SDS011;48553;50.766;2.900;2024-02-15T12:03:40;6.25;;;1.90;;
60851;SDS011;48553;50.766;2.900;2024-02-15T12:07:00;5.22;;;1.75;;
60851;SDS011;48553;50.766;2.900;2024-02-15T12:10:19;5.78;;;1.70;;
60851;SDS011;48553;50.766;2.900;2024-02-15T12:13:39;3.38;;;1.63;;
60851;SDS011;48553;50.766;2.900;2024-02-15T12:17:07;4.90;;;1.95;;
60851;SDS011;48553;50.766;2.900;2024-02-15T12:20:27;4.30;;;2.00;;
60851;SDS011;48553;50.766;2.900;2024-02-15T12:23:28;5.25;;;1.95;;
60851;SDS011;48553;50.766;2.900;2024-02-15T12:26:33;4.65;;;1.80;;
60851;SDS011;48553;50.766;2.900;2024-02-15T12:29:35;3.85;;;1.80;;
60851;SDS011;48553;50.766;2.900;2024-02-15T12:32:35;4.63;;;1.90;;
60851;SDS011;48553;50.766;2.900;2024-02-15T12:35:36;3.45;;;1.88;;
60851;SDS011;48553;50.766;2.900;2024-02-15T12:38:36;3.35;;;1.60;;
60851;SDS011;48553;50.766;2.900;2024-02-15T12:41:39;4.43;;;1.75;;
60851;SDS011;48553;50.766;2.900;2024-02-15T12:44:43;3.80;;;2.00;;
60851;SDS011;48553;50.766;2.900;2024-02-15T12:47:47;2.70;;;1.60;;
60851;SDS011;48553;50.766;2.900;2024-02-15T12:50:51;3.35;;;1.80;;
60851;SDS011;48553;50.766;2.900;2024-02-15T12:53:51;5.47;;;1.90;;
60851;SDS011;48553;50.766;2.900;2024-02-15T12:56:52;4.30;;;1.75;;
60851;SDS011;48553;50.766;2.900;2024-02-15T13:00:09;3.60;;;1.77;;
60851;SDS011;48553;50.766;2.900;2024-02-15T13:03:18;4.15;;;2.10;;
60851;SDS011;48553;50.766;2.900;2024-02-15T13:06:18;4.20;;;1.92;;
60851;SDS011;48553;50.766;2.900;2024-02-15T13:09:23;5.22;;;1.77;;
60851;SDS011;48553;50.766;2.900;2024-02-15T13:12:24;4.50;;;2.00;;
60851;SDS011;48553;50.766;2.900;2024-02-15T13:15:24;4.15;;;2.05;;
60851;SDS011;48553;50.766;2.900;2024-02-15T13:18:32;4.13;;;1.77;;
60851;SDS011;48553;50.766;2.900;2024-02-15T13:21:33;3.88;;;1.63;;
60851;SDS011;48553;50.766;2.900;2024-02-15T13:24:34;4.13;;;1.88;;
60851;SDS011;48553;50.766;2.900;2024-02-15T13:27:38;3.75;;;1.67;;
60851;SDS011;48553;50.766;2.900;2024-02-15T13:30:39;4.40;;;1.70;;
60851;SDS011;48553;50.766;2.900;2024-02-15T13:33:41;4.22;;;1.58;;
60851;SDS011;48553;50.766;2.900;2024-02-15T13:36:41;4.00;;;1.80;;
60851;SDS011;48553;50.766;2.900;2024-02-15T13:39:42;3.45;;;1.60;;
60851;SDS011;48553;50.766;2.900;2024-02-15T13:42:46;4.13;;;1.60;;
60851;SDS011;48553;50.766;2.900;2024-02-15T13:45:52;4.95;;;1.77;;
60851;SDS011;48553;50.766;2.900;2024-02-15T13:48:53;3.63;;;1.50;;
60851;SDS011;48553;50.766;2.900;2024-02-15T13:51:54;4.80;;;1.58;;
60851;SDS011;48553;50.766;2.900;2024-02-15T13:54:55;3.72;;;1.50;;
60851;SDS011;48553;50.766;2.900;2024-02-15T13:57:56;4.22;;;1.90;;
60851;SDS011;48553;50.766;2.900;2024-02-15T14:00:57;2.92;;;1.45;;
60851;SDS011;48553;50.766;2.900;2024-02-15T14:03:59;2.92;;;1.50;;
60851;SDS011;48553;50.766;2.900;2024-02-15T14:06:59;4.43;;;1.67;;
60851;SDS011;48553;50.766;2.900;2024-02-15T14:10:00;3.13;;;1.60;;
60851;SDS011;48553;50.766;2.900;2024-02-15T14:13:01;5.53;;;1.60;;
60851;SDS011;48553;50.766;2.900;2024-02-15T14:16:04;3.92;;;1.67;;
60851;SDS011;48553;50.766;2.900;2024-02-15T14:19:08;4.40;;;1.77;;
60851;SDS011;48553;50.766;2.900;2024-02-15T14:22:08;3.97;;;1.80;;
60851;SDS011;48553;50.766;2.900;2024-02-15T14:25:09;3.80;;;1.55;;
60851;SDS011;48553;50.766;2.900;2024-02-15T14:28:11;3.10;;;1.50;;
60851;SDS011;48553;50.766;2.900;2024-02-15T14:31:12;3.08;;;1.52;;
60851;SDS011;48553;50.766;2.900;2024-02-15T14:34:36;4.20;;;1.70;;
60851;SDS011;48553;50.766;2.900;2024-02-15T14:37:38;4.50;;;1.80;;
60851;SDS011;48553;50.766;2.900;2024-02-15T14:40:43;3.85;;;1.60;;
60851;SDS011;48553;50.766;2.900;2024-02-15T14:43:45;3.65;;;1.85;;
60851;SDS011;48553;50.766;2.900;2024-02-15T14:46:46;4.40;;;1.40;;
60851;SDS011;48553;50.766;2.900;2024-02-15T14:49:46;3.63;;;1.67;;
60851;SDS011;48553;50.766;2.900;2024-02-15T14:52:47;2.95;;;1.65;;
60851;SDS011;48553;50.766;2.900;2024-02-15T14:55:53;4.20;;;1.40;;
60851;SDS011;48553;50.766;2.900;2024-02-15T14:58:54;4.88;;;1.77;;
60851;SDS011;48553;50.766;2.900;2024-02-15T15:01:54;5.15;;;1.80;;
60851;SDS011;48553;50.766;2.900;2024-02-15T15:04:57;5.93;;;2.00;;
60851;SDS011;48553;50.766;2.900;2024-02-15T15:08:17;4.35;;;1.88;;
60851;SDS011;48553;50.766;2.900;2024-02-15T15:11:37;4.97;;;1.92;;
60851;SDS011;48553;50.766;2.900;2024-02-15T15:14:56;4.72;;;1.88;;
60851;SDS011;48553;50.766;2.900;2024-02-15T15:17:56;5.20;;;1.90;;
60851;SDS011;48553;50.766;2.900;2024-02-15T15:20:57;3.92;;;1.73;;
60851;SDS011;48553;50.766;2.900;2024-02-15T15:23:59;4.70;;;1.90;;
60851;SDS011;48553;50.766;2.900;2024-02-15T15:26:59;4.93;;;1.90;;
60851;SDS011;48553;50.766;2.900;2024-02-15T15:30:00;4.00;;;2.08;;
60851;SDS011;48553;50.766;2.900;2024-02-15T15:33:00;3.72;;;1.70;;
60851;SDS011;48553;50.766;2.900;2024-02-15T15:36:01;4.05;;;1.80;;
60851;SDS011;48553;50.766;2.900;2024-02-15T15:39:05;3.38;;;1.90;;
60851;SDS011;48553;50.766;2.900;2024-02-15T15:42:08;5.88;;;2.05;;
60851;SDS011;48553;50.766;2.900;2024-02-15T15:45:09;5.68;;;2.15;;
60851;SDS011;48553;50.766;2.900;2024-02-15T15:48:10;5.70;;;2.38;;
60851;SDS011;48553;50.766;2.900;2024-02-15T15:51:11;4.80;;;2.35;;
60851;SDS011;48553;50.766;2.900;2024-02-15T15:54:13;4.03;;;2.20;;
60851;SDS011;48553;50.766;2.900;2024-02-15T15:57:14;7.13;;;2.38;;
60851;SDS011;48553;50.766;2.900;2024-02-15T16:00:15;4.05;;;2.05;;
60851;SDS011;48553;50.766;2.900;2024-02-15T16:03:16;5.30;;;2.25;;
60851;SDS011;48553;50.766;2.900;2024-02-15T16:06:16;3.97;;;2.00;;
60851;SDS011;48553;50.766;2.900;2024-02-15T16:09:17;5.55;;;2.20;;
60851;SDS011;48553;50.766;2.900;2024-02-15T16:12:17;3.90;;;2.03;;
60851;SDS011;48553;50.766;2.900;2024-02-15T16:15:19;5.57;;;2.10;;
60851;SDS011;48553;50.766;2.900;2024-02-15T16:18:20;5.57;;;2.40;;
60851;SDS011;48553;50.766;2.900;2024-02-15T16:21:21;4.35;;;2.08;;
60851;SDS011;48553;50.766;2.900;2024-02-15T16:24:21;5.85;;;2.20;;
60851;SDS011;48553;50.766;2.900;2024-02-15T16:27:22;4.63;;;2.22;;
60851;SDS011;48553;50.766;2.900;2024-02-15T16:30:22;5.55;;;2.42;;
60851;SDS011;48553;50.766;2.900;2024-02-15T16:33:23;7.00;;;2.63;;
60851;SDS011;48553;50.766;2.900;2024-02-15T16:36:23;6.65;;;2.20;;
60851;SDS011;48553;50.766;2.900;2024-02-15T16:39:24;4.78;;;2.30;;
60851;SDS011;48553;50.766;2.900;2024-02-15T16:42:24;5.55;;;2.50;;
60851;SDS011;48553;50.766;2.900;2024-02-15T16:45:25;6.30;;;2.60;;
60851;SDS011;48553;50.766;2.900;2024-02-15T16:48:25;4.90;;;2.38;;
60851;SDS011;48553;50.766;2.900;2024-02-15T16:51:27;4.30;;;2.58;;
60851;SDS011;48553;50.766;2.900;2024-02-15T16:54:29;4.88;;;2.40;;
60851;SDS011;48553;50.766;2.900;2024-02-15T16:57:29;4.57;;;2.67;;
60851;SDS011;48553;50.766;2.900;2024-02-15T17:00:30;4.35;;;2.50;;
60851;SDS011;48553;50.766;2.900;2024-02-15T17:03:31;4.95;;;2.40;;
60851;SDS011;48553;50.766;2.900;2024-02-15T17:06:31;4.88;;;2.78;;
60851;SDS011;48553;50.766;2.900;2024-02-15T17:09:32;5.50;;;3.35;;
60851;SDS011;48553;50.766;2.900;2024-02-15T17:12:32;6.22;;;2.95;;
60851;SDS011;48553;50.766;2.900;2024-02-15T17:15:34;6.28;;;3.50;;
60851;SDS011;48553;50.766;2.900;2024-02-15T17:18:35;6.57;;;2.90;;
60851;SDS011;48553;50.766;2.900;2024-02-15T17:21:39;7.53;;;3.37;;
60851;SDS011;48553;50.766;2.900;2024-02-15T17:24:42;7.13;;;3.78;;
60851;SDS011;48553;50.766;2.900;2024-02-15T17:27:43;6.88;;;3.50;;
60851;SDS011;48553;50.766;2.900;2024-02-15T17:30:44;6.70;;;3.55;;
60851;SDS011;48553;50.766;2.900;2024-02-15T17:33:46;8.38;;;3.58;;
60851;SDS011;48553;50.766;2.900;2024-02-15T17:36:47;6.63;;;3.17;;
60851;SDS011;48553;50.766;2.900;2024-02-15T17:39:47;8.20;;;3.70;;
60851;SDS011;48553;50.766;2.900;2024-02-15T17:42:48;7.03;;;3.45;;
60851;SDS011;48553;50.766;2.900;2024-02-15T17:45:48;7.05;;;4.15;;
60851;SDS011;48553;50.766;2.900;2024-02-15T17:48:49;7.10;;;3.80;;
60851;SDS011;48553;50.766;2.900;2024-02-15T17:51:50;6.38;;;3.47;;
60851;SDS011;48553;50.766;2.900;2024-02-15T17:54:50;6.22;;;3.42;;
60851;SDS011;48553;50.766;2.900;2024-02-15T17:57:51;7.15;;;3.65;;
60851;SDS011;48553;50.766;2.900;2024-02-15T18:00:52;7.35;;;3.75;;
60851;SDS011;48553;50.766;2.900;2024-02-15T18:03:52;8.77;;;4.00;;
60851;SDS011;48553;50.766;2.900;2024-02-15T18:06:55;7.70;;;3.60;;
60851;SDS011;48553;50.766;2.900;2024-02-15T18:09:56;6.72;;;3.67;;
60851;SDS011;48553;50.766;2.900;2024-02-15T18:13:00;5.97;;;3.72;;
60851;SDS011;48553;50.766;2.900;2024-02-15T18:16:01;9.65;;;4.07;;
60851;SDS011;48553;50.766;2.900;2024-02-15T18:19:01;7.38;;;4.00;;
60851;SDS011;48553;50.766;2.900;2024-02-15T18:22:04;7.93;;;4.35;;
60851;SDS011;48553;50.766;2.900;2024-02-15T18:25:08;7.60;;;4.00;;
60851;SDS011;48553;50.766;2.900;2024-02-15T18:28:09;7.05;;;4.10;;